Time;durP1;ratioP1;P1;durP2;ratioP2;P2;SDS_P1;SDS_P2;PMS_P1;PMS_P2;Temp;Humidity;BMP_temperature;BMP_pressure;BME280_temperature;BME280_humidity;BME280_pressure;Samples;Min_cycle;Max_cycle;Signal;HPM_P1;HPM_P2
2022/06/29 00:01:54;;;;;;;19.25;10.70;;;;;;;17.08;66.36;101493.38;5010136;28;20025;-51
2022/06/29 00:04:20;;;;;;;18.13;10.85;;;;;;;16.99;66.75;101487.81;5010458;28;20053;-47
2022/06/29 00:06:45;;;;;;;17.67;11.23;;;;;;;16.93;66.85;101493.88;5009908;28;20026;-49
2022/06/29 00:09:11;;;;;;;18.55;10.50;;;;;;;16.91;66.79;101494.22;5010429;28;20069;-48
2022/06/29 00:11:36;;;;;;;17.88;10.70;;;;;;;16.87;66.86;101489.63;5013756;28;20061;-47
2022/06/29 00:14:01;;;;;;;18.00;11.70;;;;;;;16.81;67.39;101495.41;5013897;28;20037;-49
2022/06/29 00:16:26;;;;;;;20.33;12.27;;;;;;;16.75;67.67;101493.94;5014287;28;20389;-47
2022/06/29 00:18:52;;;;;;;17.98;11.30;;;;;;;16.69;67.71;101493.31;5013620;28;20492;-49
2022/06/29 00:21:17;;;;;;;18.77;11.70;;;;;;;16.67;68.01;101494.78;5013747;28;20022;-49
2022/06/29 00:23:42;;;;;;;17.45;11.35;;;;;;;16.67;67.90;101494.78;5012953;28;20030;-48
2022/06/29 00:26:08;;;;;;;17.95;11.63;;;;;;;16.63;67.98;101488.22;5013755;28;20029;-47
2022/06/29 00:28:33;;;;;;;18.90;11.35;;;;;;;16.59;68.07;101488.06;5013009;28;20041;-50
2022/06/29 00:30:58;;;;;;;19.08;12.30;;;;;;;16.57;68.36;101483.97;5013788;28;20120;-50
2022/06/29 00:33:24;;;;;;;19.95;12.43;;;;;;;16.52;68.46;101482.97;5013765;28;20022;-49
2022/06/29 00:35:49;;;;;;;20.70;11.88;;;;;;;16.47;68.45;101476.75;5013213;28;20402;-50
2022/06/29 00:38:15;;;;;;;19.08;12.10;;;;;;;16.41;68.81;101475.28;5013474;28;20397;-48
2022/06/29 00:40:40;;;;;;;18.92;12.68;;;;;;;16.42;68.87;101479.72;5012924;28;20473;-48
2022/06/29 00:43:06;;;;;;;20.63;12.50;;;;;;;16.40;68.94;101471.66;5012991;28;20087;-49
2022/06/29 00:45:31;;;;;;;19.70;12.80;;;;;;;16.34;69.44;101476.59;5013065;28;20044;-47
2022/06/29 00:47:56;;;;;;;19.70;12.32;;;;;;;16.34;69.16;101471.00;5013021;28;20034;-49
2022/06/29 00:50:28;;;;;;;20.83;12.40;;;;;;;16.31;69.38;101476.44;5013238;28;20030;-46
2022/06/29 00:52:59;;;;;;;19.77;12.02;;;;;;;16.29;69.27;101468.38;5013354;28;20049;-47
2022/06/29 00:55:28;;;;;;;19.75;12.90;;;;;;;16.25;69.55;101461.81;5013523;28;20065;-47
2022/06/29 00:57:57;;;;;;;19.70;12.80;;;;;;;16.22;69.34;101466.09;5013082;28;20038;-47
2022/06/29 01:00:22;;;;;;;19.67;12.98;;;;;;;16.21;69.26;101458.06;5012851;28;20038;-47
2022/06/29 01:02:48;;;;;;;19.40;12.50;;;;;;;16.19;69.54;101455.59;5013336;28;20104;-47
2022/06/29 01:05:14;;;;;;;18.92;12.30;;;;;;;16.16;69.68;101461.84;5013352;28;20030;-47
2022/06/29 01:07:39;;;;;;;19.90;12.75;;;;;;;16.10;70.00;101451.16;5012645;28;20105;-48
2022/06/29 01:10:05;;;;;;;18.77;12.27;;;;;;;16.11;70.00;101448.03;5013033;28;20172;-48
2022/06/29 01:12:31;;;;;;;20.20;12.02;;;;;;;16.02;70.35;101450.84;5013162;28;20034;-47
2022/06/29 01:14:56;;;;;;;21.65;13.43;;;;;;;15.98;70.64;101449.84;5012728;28;20120;-48
2022/06/29 01:17:22;;;;;;;20.92;12.73;;;;;;;15.96;70.54;101454.13;5011907;28;20383;-48
2022/06/29 01:19:48;;;;;;;18.30;12.50;;;;;;;15.92;70.67;101456.75;5011967;28;20058;-49
2022/06/29 01:22:19;;;;;;;19.77;13.10;;;;;;;15.85;70.63;101446.06;5011635;28;20022;-48
2022/06/29 01:24:46;;;;;;;20.63;13.02;;;;;;;15.87;70.65;101460.53;5012530;28;20153;-48
2022/06/29 01:27:15;;;;;;;19.95;13.00;;;;;;;15.85;70.59;101450.84;5012193;28;20030;-48
2022/06/29 01:29:41;;;;;;;19.33;12.00;;;;;;;15.84;70.97;101452.81;5012106;28;20039;-50
2022/06/29 01:32:08;;;;;;;20.38;13.35;;;;;;;15.79;71.30;101447.38;5012016;28;20053;-47
2022/06/29 01:34:34;;;;;;;20.05;12.63;;;;;;;15.80;70.98;101451.81;5012792;28;20045;-50
2022/06/29 01:37:00;;;;;;;18.98;12.57;;;;;;;15.77;71.46;101444.06;5011355;28;20036;-48
2022/06/29 01:39:26;;;;;;;19.50;12.65;;;;;;;15.72;71.05;101436.69;5011978;28;20018;-47
2022/06/29 01:41:52;;;;;;;19.63;13.13;;;;;;;15.66;71.84;101439.97;5012423;28;20172;-48
2022/06/29 01:44:18;;;;;;;20.35;12.93;;;;;;;15.66;71.60;101440.78;5012000;28;20509;-50
2022/06/29 01:46:43;;;;;;;19.75;13.38;;;;;;;15.62;71.74;101445.38;5012238;28;20072;-49
2022/06/29 01:49:09;;;;;;;19.13;13.18;;;;;;;15.60;72.01;101434.56;5011432;28;20399;-49
2022/06/29 01:51:34;;;;;;;19.27;12.80;;;;;;;15.56;71.92;101433.56;5011736;28;20058;-47
2022/06/29 01:54:00;;;;;;;20.13;13.00;;;;;;;15.53;72.11;101438.97;5011488;28;20051;-50
2022/06/29 01:56:25;;;;;;;19.73;12.90;;;;;;;15.54;72.08;101438.63;5011895;28;20026;-50
2022/06/29 01:58:50;;;;;;;19.05;12.60;;;;;;;15.51;72.20;101424.50;5011619;28;20026;-47
2022/06/29 02:01:16;;;;;;;19.92;13.00;;;;;;;15.51;72.07;101427.31;5011545;28;20033;-49
2022/06/29 02:03:41;;;;;;;19.02;13.20;;;;;;;15.45;72.48;101429.44;5010920;28;20385;-49
2022/06/29 02:06:07;;;;;;;19.83;12.70;;;;;;;15.47;72.26;101417.97;5011643;28;20076;-49
2022/06/29 02:08:33;;;;;;;19.65;12.80;;;;;;;15.41;72.77;101429.25;5011215;28;20025;-47
2022/06/29 02:10:58;;;;;;;19.05;13.15;;;;;;;15.37;72.57;101419.91;5011125;28;20053;-49
2022/06/29 02:13:24;;;;;;;20.98;13.50;;;;;;;15.36;72.88;101421.06;5011309;28;20368;-47
2022/06/29 02:15:49;;;;;;;20.13;13.30;;;;;;;15.36;72.72;101423.00;5011465;28;20641;-48
2022/06/29 02:18:14;;;;;;;18.98;13.93;;;;;;;15.33;72.84;101432.03;5011846;28;20026;-49
2022/06/29 02:20:40;;;;;;;20.42;13.70;;;;;;;15.30;72.88;101430.72;5010723;28;20046;-48
2022/06/29 02:23:05;;;;;;;20.33;13.88;;;;;;;15.27;73.10;101423.81;5011717;28;20370;-50
2022/06/29 02:25:30;;;;;;;19.60;14.05;;;;;;;15.25;73.15;101422.50;5011574;28;20064;-49
2022/06/29 02:27:56;;;;;;;20.00;13.85;;;;;;;15.25;73.48;101416.94;5011792;28;20042;-48
2022/06/29 02:34:43;;;;;;;21.23;14.02;;;;;;;15.23;73.60;101422.00;5011769;28;20505;-47
2022/06/29 02:35:53;;;;;;;19.05;12.93;;;;;;;15.26;73.38;101416.59;5011217;28;20111;-48
2022/06/29 02:38:18;;;;;;;19.77;13.95;;;;;;;15.28;73.44;101419.88;5011068;28;20081;-50
2022/06/29 02:40:44;;;;;;;20.33;13.70;;;;;;;15.30;73.19;101419.59;5011444;28;20446;-49
2022/06/29 02:43:10;;;;;;;20.85;12.88;;;;;;;15.33;73.67;101420.91;5011645;28;20512;-49
2022/06/29 02:45:35;;;;;;;20.08;13.80;;;;;;;15.33;73.55;101416.13;5011594;28;20104;-47
2022/06/29 02:48:01;;;;;;;20.70;13.32;;;;;;;15.33;73.90;101413.34;5010763;28;20076;-49
2022/06/29 02:50:26;;;;;;;19.58;13.80;;;;;;;15.34;73.59;101414.19;5010945;28;20103;-49
2022/06/29 02:52:51;;;;;;;20.55;13.57;;;;;;;15.32;73.62;101413.69;5011012;28;20030;-47
2022/06/29 02:55:17;;;;;;;19.83;14.00;;;;;;;15.28;74.45;101417.09;5011165;28;20030;-47
2022/06/29 02:57:42;;;;;;;20.02;13.80;;;;;;;15.22;74.62;101409.22;5010961;28;20438;-49
2022/06/29 03:00:08;;;;;;;21.13;13.73;;;;;;;15.24;74.27;101413.34;5011321;28;20033;-50
2022/06/29 03:02:33;;;;;;;19.17;13.20;;;;;;;15.22;73.96;101410.03;5010676;28;20029;-50
2022/06/29 03:04:59;;;;;;;19.75;12.93;;;;;;;15.20;73.83;101403.97;5010845;28;20022;-48
2022/06/29 03:07:25;;;;;;;20.02;13.30;;;;;;;15.15;75.18;101401.34;5010996;28;20052;-50
2022/06/29 03:09:50;;;;;;;20.00;13.60;;;;;;;15.09;75.48;101399.84;5010230;28;20397;-49
2022/06/29 03:12:15;;;;;;;21.60;13.52;;;;;;;15.05;75.17;101402.44;5008319;28;20114;-49
2022/06/29 03:14:41;;;;;;;20.77;13.70;;;;;;;15.02;75.93;101403.09;5009883;28;20465;-48
2022/06/29 03:17:06;;;;;;;20.10;14.60;;;;;;;14.97;76.38;101397.69;5009843;28;20029;-50
2022/06/29 03:19:31;;;;;;;19.52;14.20;;;;;;;14.96;76.08;101399.66;5009562;28;20065;-47
2022/06/29 03:21:56;;;;;;;23.58;15.32;;;;;;;14.92;76.46;101390.28;5009903;28;20022;-46
2022/06/29 03:24:23;;;;;;;20.17;14.02;;;;;;;14.94;76.17;101390.78;5010061;28;20421;-47
2022/06/29 03:26:48;;;;;;;20.92;14.15;;;;;;;14.91;76.43;101385.84;5010682;28;20445;-49
2022/06/29 03:29:14;;;;;;;20.13;14.07;;;;;;;14.93;76.82;101386.34;5010792;28;20144;-49
2022/06/29 03:31:39;;;;;;;20.90;14.15;;;;;;;14.87;76.95;101381.25;5010616;28;20370;-45
2022/06/29 03:34:04;;;;;;;21.15;14.50;;;;;;;14.79;77.48;101380.06;5010718;28;20192;-50
2022/06/29 03:36:30;;;;;;;21.45;15.18;;;;;;;14.76;77.31;101381.53;5010101;28;20018;-47
2022/06/29 03:38:55;;;;;;;19.98;14.45;;;;;;;14.76;77.12;101375.97;5009970;28;20390;-48
2022/06/29 03:41:20;;;;;;;20.33;15.05;;;;;;;14.77;77.21;101376.81;5010125;28;20382;-46
2022/06/29 03:43:46;;;;;;;22.48;16.08;;;;;;;14.73;77.46;101368.28;5010480;28;20113;-48
2022/06/29 03:46:11;;;;;;;21.83;15.40;;;;;;;14.72;77.62;101371.38;5013131;28;20105;-46
2022/06/29 03:48:37;;;;;;;22.20;15.18;;;;;;;14.74;77.48;101372.69;5013806;28;20482;-46
2022/06/29 03:51:02;;;;;;;20.65;15.77;;;;;;;14.81;76.98;101373.06;5014318;28;20339;-45
2022/06/29 03:53:28;;;;;;;21.52;15.00;;;;;;;15.00;76.53;101365.56;5014119;28;20111;-46
2022/06/29 03:55:53;;;;;;;21.25;15.18;;;;;;;15.32;75.11;101364.31;5014189;28;20022;-50
2022/06/29 03:58:19;;;;;;;22.27;15.18;;;;;;;15.62;74.02;101361.72;5014055;28;20036;-49
2022/06/29 04:00:44;;;;;;;21.48;15.23;;;;;;;15.83;72.93;101361.84;5014177;28;20026;-47
2022/06/29 04:03:09;;;;;;;21.02;15.32;;;;;;;15.83;72.85;101358.25;5013483;28;20069;-47
2022/06/29 04:05:35;;;;;;;21.30;15.60;;;;;;;15.70;73.37;101348.91;5013707;28;20050;-49
2022/06/29 04:08:00;;;;;;;20.58;15.52;;;;;;;15.57;73.48;101357.13;5013438;28;20405;-50
2022/06/29 04:10:25;;;;;;;23.15;15.93;;;;;;;15.51;74.20;101355.66;5013314;28;20061;-47
2022/06/29 04:12:51;;;;;;;21.20;16.27;;;;;;;15.46;73.98;101355.78;5013718;28;20037;-49
2022/06/29 04:15:16;;;;;;;20.55;15.90;;;;;;;15.38;74.83;101348.25;5013644;28;20034;-45
2022/06/29 04:17:41;;;;;;;23.10;17.10;;;;;;;15.35;74.91;101357.28;5013438;28;20112;-46
2022/06/29 04:20:07;;;;;;;21.70;16.90;;;;;;;15.34;75.02;101355.63;5013974;28;20049;-48
2022/06/29 04:22:32;;;;;;;21.40;16.60;;;;;;;15.32;74.98;101363.50;5013444;28;20038;-49
2022/06/29 04:24:58;;;;;;;21.73;16.50;;;;;;;15.32;75.11;101355.13;5014064;28;20468;-48
2022/06/29 04:27:24;;;;;;;21.75;16.65;;;;;;;15.31;75.30;101357.09;5012328;28;20025;-49
2022/06/29 04:29:49;;;;;;;22.80;17.55;;;;;;;15.26;75.25;101360.84;5013255;28;20041;-50
2022/06/29 04:32:15;;;;;;;22.05;17.10;;;;;;;15.27;75.75;101365.28;5013328;28;20037;-50
2022/06/29 04:34:40;;;;;;;22.48;16.83;;;;;;;15.24;75.92;101356.75;5013666;28;20030;-50
2022/06/29 04:37:05;;;;;;;22.15;16.88;;;;;;;15.24;75.67;101353.97;5013416;28;20074;-49
2022/06/29 04:39:30;;;;;;;23.20;17.63;;;;;;;15.25;75.91;101353.66;5012672;28;20176;-48
2022/06/29 04:41:56;;;;;;;22.35;17.00;;;;;;;15.28;75.47;101350.19;5012642;28;20079;-51
2022/06/29 04:44:21;;;;;;;23.65;16.50;;;;;;;15.38;75.41;101351.88;5012631;28;20137;-50
2022/06/29 04:46:47;;;;;;;21.58;17.73;;;;;;;15.46;75.34;101341.03;5012705;28;20057;-48
2022/06/29 04:49:12;;;;;;;22.77;17.40;;;;;;;15.56;74.98;101351.88;5013103;28;20450;-45
2022/06/29 04:51:37;;;;;;;21.20;16.30;;;;;;;15.68;74.80;101349.22;5013318;28;20112;-47
2022/06/29 04:54:04;;;;;;;23.70;17.60;;;;;;;15.74;74.68;101350.72;5012859;28;20343;-50
2022/06/29 04:56:34;;;;;;;21.42;17.00;;;;;;;15.85;74.61;101351.22;5011981;28;20065;-47
2022/06/29 04:59:01;;;;;;;22.75;17.90;;;;;;;15.91;74.61;101346.28;5012894;28;20030;-50
2022/06/29 05:01:28;;;;;;;20.95;16.45;;;;;;;15.98;74.59;101348.59;5012576;28;20044;-50
2022/06/29 05:03:55;;;;;;;22.08;17.02;;;;;;;16.02;74.23;101343.97;5012103;28;20026;-50
2022/06/29 05:06:21;;;;;;;23.13;17.17;;;;;;;16.11;74.13;101336.41;5012541;28;20033;-49
2022/06/29 05:08:50;;;;;;;22.98;17.77;;;;;;;16.25;73.86;101346.56;5012949;28;20052;-50
2022/06/29 05:11:17;;;;;;;24.15;17.35;;;;;;;16.37;73.60;101347.50;5012872;28;20555;-50
2022/06/29 05:13:43;;;;;;;23.30;16.98;;;;;;;16.47;73.33;101334.31;5012587;28;20030;-48
2022/06/29 05:16:09;;;;;;;21.48;16.70;;;;;;;16.58;72.64;101335.59;5012272;28;20465;-51
2022/06/29 05:18:35;;;;;;;22.02;16.27;;;;;;;16.69;71.80;101336.84;5012834;28;20029;-51
2022/06/29 05:21:01;;;;;;;22.23;15.88;;;;;;;16.78;71.35;101328.41;5012644;28;20135;-51
2022/06/29 05:23:28;;;;;;;22.20;15.85;;;;;;;16.88;71.28;101327.22;5012889;28;20105;-51
2022/06/29 05:25:54;;;;;;;22.73;16.20;;;;;;;16.97;70.46;101342.00;5013068;28;20059;-51
2022/06/29 05:28:19;;;;;;;23.00;16.23;;;;;;;17.06;70.62;101330.75;5012559;28;20018;-51
2022/06/29 05:30:45;;;;;;;23.42;15.82;;;;;;;17.11;70.43;101329.72;5012587;28;20040;-52
2022/06/29 05:33:10;;;;;;;23.35;15.60;;;;;;;17.22;70.37;101330.97;5012648;28;20460;-51
2022/06/29 05:35:35;;;;;;;23.30;16.35;;;;;;;17.30;70.76;101335.69;5012481;28;20470;-51
2022/06/29 05:38:03;;;;;;;22.13;15.93;;;;;;;17.34;69.63;101333.00;5012656;28;20022;-52
2022/06/29 05:40:30;;;;;;;21.45;15.55;;;;;;;17.37;69.38;101331.53;5012462;28;20026;-49
2022/06/29 05:42:57;;;;;;;22.58;16.15;;;;;;;17.45;70.84;101337.06;5012213;28;20018;-51
2022/06/29 05:45:23;;;;;;;22.85;16.48;;;;;;;17.51;70.27;101326.47;5012779;28;20108;-50
2022/06/29 05:47:49;;;;;;;22.23;16.38;;;;;;;17.53;70.75;101328.91;5012341;28;20033;-52
2022/06/29 05:50:14;;;;;;;22.60;17.00;;;;;;;17.57;70.60;101324.28;5012441;28;20034;-51
2022/06/29 05:52:40;;;;;;;20.88;15.52;;;;;;;17.67;69.97;101323.88;5011640;28;20030;-52
2022/06/29 05:55:05;;;;;;;22.75;16.15;;;;;;;17.73;70.00;101324.47;5011049;28;20038;-52
2022/06/29 05:57:33;;;;;;;22.70;16.92;;;;;;;17.82;70.67;101319.63;5011755;28;20049;-50
2022/06/29 05:59:59;;;;;;;21.65;16.25;;;;;;;17.92;69.82;101318.34;5012002;28;20101;-51
2022/06/29 06:02:25;;;;;;;21.90;15.52;;;;;;;18.03;69.37;101329.97;5012154;28;20026;-49
2022/06/29 06:04:50;;;;;;;22.67;16.00;;;;;;;18.13;68.92;101323.13;5011942;28;20437;-49
2022/06/29 06:07:15;;;;;;;22.05;16.30;;;;;;;18.27;67.79;101325.59;5011907;28;20116;-47
2022/06/29 06:09:41;;;;;;;22.88;16.75;;;;;;;18.36;68.05;101326.31;5011586;28;20026;-49
2022/06/29 06:12:06;;;;;;;23.33;16.70;;;;;;;18.48;67.97;101337.53;5043330;28;20143;-49
2022/06/29 06:14:32;;;;;;;22.27;15.52;;;;;;;18.61;67.75;101329.16;5011893;28;20200;-50
2022/06/29 06:16:57;;;;;;;21.70;15.80;;;;;;;18.68;66.89;101320.97;5012184;28;20026;-50
2022/06/29 06:19:22;;;;;;;22.85;16.90;;;;;;;18.80;67.41;101323.75;5011225;28;20125;-49
2022/06/29 06:21:47;;;;;;;24.90;16.35;;;;;;;18.90;66.65;101321.63;5011370;28;20488;-49
2022/06/29 06:24:13;;;;;;;21.77;16.45;;;;;;;19.01;65.89;101329.28;5011650;28;20032;-52
2022/06/29 06:26:38;;;;;;;21.63;16.48;;;;;;;19.07;67.01;101329.03;5011511;28;20022;-49
2022/06/29 06:29:03;;;;;;;23.50;16.83;;;;;;;19.12;67.35;101326.00;5011377;28;20034;-49
2022/06/29 06:31:29;;;;;;;22.13;16.45;;;;;;;19.21;67.53;101326.66;5011817;28;20034;-50
2022/06/29 06:33:54;;;;;;;22.17;16.85;;;;;;;19.30;66.08;101321.75;5011709;28;20028;-50
2022/06/29 06:36:19;;;;;;;23.15;17.10;;;;;;;19.35;64.80;101320.69;5011746;28;20026;-48
2022/06/29 06:38:45;;;;;;;22.70;16.48;;;;;;;19.39;64.18;101320.78;5011565;28;20585;-49
2022/06/29 06:41:22;;;;;;;21.23;16.27;;;;;;;19.46;64.96;101321.78;5011424;28;20022;-50
2022/06/29 06:43:49;;;;;;;22.45;16.80;;;;;;;19.56;65.03;101319.66;5011698;28;20030;-48
2022/06/29 06:46:14;;;;;;;21.33;15.57;;;;;;;19.67;64.42;101317.97;5011647;28;20034;-51
2022/06/29 06:48:39;;;;;;;21.13;15.73;;;;;;;19.81;64.89;101311.94;5009492;28;20084;-48
2022/06/29 06:51:05;;;;;;;22.13;16.25;;;;;;;19.92;64.45;101315.91;5009993;28;20164;-50
2022/06/29 06:53:30;;;;;;;24.35;16.58;;;;;;;19.99;63.69;101320.91;5010092;28;20469;-51
2022/06/29 06:55:57;;;;;;;20.13;15.05;;;;;;;20.12;64.13;101316.03;5010501;28;20125;-52
2022/06/29 06:58:22;;;;;;;22.65;15.55;;;;;;;20.11;62.54;101322.81;5010854;28;20037;-51
2022/06/29 07:00:47;;;;;;;19.85;14.90;;;;;;;20.07;63.22;101324.72;5010480;28;20117;-49
2022/06/29 07:03:12;;;;;;;20.75;15.52;;;;;;;20.00;63.35;101314.13;5009800;28;20431;-54
2022/06/29 07:05:38;;;;;;;20.70;15.57;;;;;;;20.01;62.21;101318.56;5010980;28;20033;-54
2022/06/29 07:08:03;;;;;;;21.25;16.02;;;;;;;19.91;62.20;101317.06;5003745;28;20110;-54
2022/06/29 07:10:29;;;;;;;22.25;15.68;;;;;;;19.89;63.20;101316.59;4988516;28;20038;-54
2022/06/29 07:12:54;;;;;;;23.50;14.90;;;;;;;19.95;63.84;101320.81;4987773;28;20038;-54
2022/06/29 07:15:19;;;;;;;21.80;16.38;;;;;;;20.09;63.28;101317.56;5003308;28;20432;-53
2022/06/29 07:17:45;;;;;;;21.35;17.15;;;;;;;20.20;62.20;101314.22;5006442;28;20048;-54
2022/06/29 07:20:10;;;;;;;22.75;16.52;;;;;;;20.35;61.66;101315.41;5008517;28;20037;-54
2022/06/29 07:22:35;;;;;;;22.55;17.55;;;;;;;20.60;62.02;101318.03;5012779;28;20030;-54
2022/06/29 07:25:01;;;;;;;22.73;17.02;;;;;;;20.93;61.94;101312.03;5012748;28;20045;-54
2022/06/29 07:27:27;;;;;;;22.23;17.00;;;;;;;21.18;58.94;101314.59;5012723;28;20076;-55
2022/06/29 07:29:52;;;;;;;21.92;16.77;;;;;;;21.44;59.03;101313.94;5013099;28;20029;-55
2022/06/29 07:32:20;;;;;;;23.25;17.25;;;;;;;21.66;58.18;101312.41;5012945;28;20030;-54
2022/06/29 07:34:46;;;;;;;21.48;17.00;;;;;;;21.84;57.95;101311.16;5012925;28;20037;-54
2022/06/29 07:37:12;;;;;;;22.65;17.25;;;;;;;22.00;57.84;101314.66;5012910;28;20018;-54
2022/06/29 07:39:38;;;;;;;22.77;17.67;;;;;;;22.15;57.74;101312.13;5012792;28;20049;-57
2022/06/29 07:42:03;;;;;;;22.02;16.65;;;;;;;22.18;57.02;101312.19;5012862;28;20083;-54
2022/06/29 07:44:29;;;;;;;23.45;16.08;;;;;;;22.04;56.58;101315.56;5012828;28;20028;-55
2022/06/29 07:46:54;;;;;;;20.90;16.10;;;;;;;21.90;56.87;101310.47;5012899;28;20113;-55
2022/06/29 07:49:20;;;;;;;21.60;16.45;;;;;;;21.76;57.95;101311.00;5013353;28;20037;-55
2022/06/29 07:51:45;;;;;;;22.75;17.20;;;;;;;21.69;58.77;101310.06;5012933;28;20073;-55
2022/06/29 07:54:10;;;;;;;21.98;17.23;;;;;;;21.64;58.80;101306.34;5012621;28;20088;-55
2022/06/29 07:56:36;;;;;;;22.15;17.02;;;;;;;21.60;59.39;101301.81;5011193;28;20484;-55
2022/06/29 07:59:02;;;;;;;23.13;17.38;;;;;;;21.60;59.85;101316.72;5012554;28;20026;-56
2022/06/29 08:01:28;;;;;;;23.67;18.40;;;;;;;21.58;60.19;101304.19;5012499;28;20516;-56
2022/06/29 08:03:56;;;;;;;23.40;17.50;;;;;;;21.59;60.77;101306.66;5012544;28;20156;-55
2022/06/29 08:06:22;;;;;;;22.55;17.88;;;;;;;21.63;59.30;101310.34;5012550;28;20088;-55
2022/06/29 08:08:48;;;;;;;22.55;17.33;;;;;;;21.71;58.59;101313.31;5012601;28;20472;-57
2022/06/29 08:11:13;;;;;;;22.15;17.02;;;;;;;21.76;57.65;101304.56;5012367;28;20038;-54
2022/06/29 08:13:38;;;;;;;21.95;16.25;;;;;;;21.92;58.79;101302.44;5012441;28;20053;-55
2022/06/29 08:16:06;;;;;;;22.70;16.10;;;;;;;22.11;56.83;101304.41;5010469;28;20033;-55
2022/06/29 08:18:32;;;;;;;23.73;16.42;;;;;;;22.25;56.84;101298.22;5010798;28;20062;-55
2022/06/29 08:20:57;;;;;;;22.90;15.73;;;;;;;22.40;56.86;101292.84;5011943;28;20056;-55
2022/06/29 08:23:22;;;;;;;22.15;15.65;;;;;;;22.50;57.61;101297.03;5012233;28;20120;-55
2022/06/29 08:25:48;;;;;;;22.05;15.20;;;;;;;22.54;57.16;101297.91;5011902;28;20471;-55
2022/06/29 08:28:13;;;;;;;21.50;15.10;;;;;;;22.52;56.54;101298.28;5012054;28;20521;-56
2022/06/29 08:30:38;;;;;;;21.45;14.77;;;;;;;22.51;56.98;101299.47;5011899;28;20076;-55
2022/06/29 08:33:04;;;;;;;20.45;14.55;;;;;;;22.55;56.36;101296.72;5011715;28;20021;-55
2022/06/29 08:35:29;;;;;;;20.38;14.02;;;;;;;22.67;56.18;101288.06;5011886;28;20033;-55
2022/06/29 08:37:54;;;;;;;21.63;14.13;;;;;;;22.85;55.18;101282.69;5010905;28;20029;-57
2022/06/29 08:40:20;;;;;;;20.98;13.50;;;;;;;22.96;55.94;101287.66;5011091;28;20389;-55
2022/06/29 08:42:46;;;;;;;20.27;13.50;;;;;;;23.16;54.22;101283.50;5011419;28;20175;-55
2022/06/29 08:45:12;;;;;;;19.55;13.18;;;;;;;23.37;54.27;101285.03;5012674;28;20025;-55
2022/06/29 08:47:40;;;;;;;19.48;12.40;;;;;;;23.56;52.83;101277.56;5012164;28;20064;-56
2022/06/29 08:50:07;;;;;;;19.58;12.68;;;;;;;23.71;53.22;101275.72;5013817;28;20014;-56
2022/06/29 08:52:36;;;;;;;18.00;11.50;;;;;;;23.82;50.15;101283.09;5013460;28;20026;-55
2022/06/29 08:55:04;;;;;;;18.50;11.43;;;;;;;23.99;49.56;101270.41;5013781;28;20037;-55
2022/06/29 08:57:29;;;;;;;18.08;11.35;;;;;;;24.18;50.58;101279.06;5013676;28;20108;-56
2022/06/29 08:59:55;;;;;;;18.42;11.30;;;;;;;24.29;50.12;101279.94;5012217;28;20050;-55
2022/06/29 09:02:21;;;;;;;15.82;10.27;;;;;;;24.46;47.58;101275.66;5012054;28;20107;-56
2022/06/29 09:04:47;;;;;;;16.38;10.48;;;;;;;24.59;44.72;101278.97;5012847;28;20095;-56
2022/06/29 09:07:12;;;;;;;15.90;9.95;;;;;;;24.74;45.23;101277.91;5013171;28;20038;-56
2022/06/29 09:09:57;;;;;;;15.93;9.80;;;;;;;24.94;46.33;101276.81;5013193;28;20064;-56
2022/06/29 09:12:22;;;;;;;17.25;10.13;;;;;;;25.13;43.32;101276.50;5013331;28;20026;-57
2022/06/29 09:14:47;;;;;;;17.73;9.77;;;;;;;25.34;43.51;101269.31;5013171;28;20125;-55
2022/06/29 09:17:13;;;;;;;18.27;10.02;;;;;;;25.64;43.60;101273.91;5013289;28;20071;-55
2022/06/29 09:19:38;;;;;;;17.42;9.50;;;;;;;25.92;43.90;101278.81;5013473;28;20073;-55
2022/06/29 09:22:03;;;;;;;17.63;10.03;;;;;;;26.06;40.25;101268.72;5013028;28;20058;-56
2022/06/29 09:24:32;;;;;;;14.43;9.38;;;;;;;26.25;41.81;101271.19;5013381;28;20104;-56
2022/06/29 09:27:03;;;;;;;16.23;10.10;;;;;;;26.21;41.19;101276.03;5011683;28;20129;-55
2022/06/29 09:29:31;;;;;;;16.40;10.15;;;;;;;26.15;42.07;101269.16;5011676;28;20512;-57
2022/06/29 09:32:04;;;;;;;17.23;10.20;;;;;;;26.25;43.84;101274.03;5012807;28;20099;-57
2022/06/29 09:34:30;;;;;;;15.65;9.57;;;;;;;26.24;41.20;101272.41;5013084;28;20042;-56
2022/06/29 09:36:56;;;;;;;15.43;8.80;;;;;;;26.22;40.12;101276.84;5012609;28;20030;-57
2022/06/29 09:39:36;;;;;;;12.88;8.43;;;;;;;26.12;39.81;101276.44;5012820;28;20068;-57
2022/06/29 09:42:03;;;;;;;13.80;9.10;;;;;;;26.06;39.59;101280.06;5012393;28;20033;-57
2022/06/29 09:44:28;;;;;;;13.18;9.00;;;;;;;26.09;40.21;101274.41;5012195;28;20033;-55
2022/06/29 09:46:57;;;;;;;15.07;8.70;;;;;;;26.07;39.72;101276.81;5012494;28;20488;-57
2022/06/29 09:49:29;;;;;;;14.77;9.07;;;;;;;26.02;40.99;101271.56;5012490;28;20129;-57
2022/06/29 09:51:56;;;;;;;15.45;8.80;;;;;;;26.12;40.62;101270.75;5012458;28;20030;-56
2022/06/29 09:54:30;;;;;;;13.98;9.05;;;;;;;26.21;40.57;101272.41;5012683;28;20030;-55
2022/06/29 09:56:56;;;;;;;14.73;9.50;;;;;;;26.25;39.94;101268.34;5012544;28;20454;-58
2022/06/29 10:02:36;;;;;;;15.35;9.30;;;;;;;26.36;40.08;101273.19;4990591;28;20107;-55
2022/06/29 10:05:04;;;;;;;16.42;10.27;;;;;;;26.35;42.71;101261.06;5005648;28;20037;-55
2022/06/29 10:07:30;;;;;;;16.80;10.50;;;;;;;26.40;41.51;101268.34;5005439;28;20469;-55
2022/06/29 10:09:57;;;;;;;15.00;10.10;;;;;;;26.54;42.62;101271.19;4990543;28;20030;-55
2022/06/29 10:15:46;;;;;;;18.23;10.85;;;;;;;26.81;42.01;101273.59;4989997;28;20116;-54
2022/06/29 10:18:17;;;;;;;16.50;9.82;;;;;;;26.94;42.87;101260.56;4990010;28;20149;-57
2022/06/29 10:20:46;;;;;;;17.17;10.40;;;;;;;26.99;42.85;101264.22;4990117;28;20058;-56
2022/06/29 10:23:44;;;;;;;16.88;10.10;;;;;;;27.12;43.46;101256.84;4990494;28;20026;-56
2022/06/29 10:26:31;;;;;;;17.92;10.75;;;;;;;27.17;42.22;101255.63;4990238;28;20030;-56
2022/06/29 10:29:19;;;;;;;17.38;10.40;;;;;;;27.22;42.19;101253.16;4989487;28;20445;-55
2022/06/29 10:31:57;;;;;;;17.42;9.70;;;;;;;27.32;40.95;101247.84;4990280;28;20041;-56
2022/06/29 10:34:31;;;;;;;16.75;10.15;;;;;;;27.34;41.29;101246.25;4988703;28;20092;-55
2022/06/29 10:37:05;;;;;;;16.70;9.82;;;;;;;27.38;41.57;101249.84;4990181;28;20113;-53
2022/06/29 10:39:37;;;;;;;15.25;9.60;;;;;;;27.39;37.74;101245.00;5004646;28;20061;-55
2022/06/29 10:45:03;;;;;;;16.35;9.10;;;;;;;27.51;38.36;101247.38;4989800;28;20041;-55
2022/06/29 10:47:29;;;;;;;14.45;9.05;;;;;;;27.60;38.16;101243.28;4989302;28;20031;-55
2022/06/29 10:50:24;;;;;;;16.20;9.20;;;;;;;27.68;38.84;101239.97;4990126;28;20022;-55
2022/06/29 10:52:52;;;;;;;14.93;8.77;;;;;;;27.72;36.48;101239.94;4987413;28;20502;-55
2022/06/29 10:55:18;;;;;;;15.48;9.48;;;;;;;27.49;34.99;101229.13;4989026;28;20034;-55
2022/06/29 10:57:44;;;;;;;15.25;8.60;;;;;;;27.32;35.21;101225.13;4991782;28;20052;-56
2022/06/29 11:00:31;;;;;;;13.30;8.30;;;;;;;27.41;37.47;101222.66;5008617;28;20182;-56
2022/06/29 11:02:57;;;;;;;13.77;8.48;;;;;;;27.58;35.33;101232.31;5008943;28;20449;-57
2022/06/29 11:05:23;;;;;;;13.43;8.85;;;;;;;27.71;36.42;101221.28;5009523;28;20034;-56
2022/06/29 11:13:22;;;;;;;14.93;9.40;;;;;;;28.03;36.81;101220.25;5009486;28;20490;-56
2022/06/29 11:15:53;;;;;;;14.57;8.98;;;;;;;27.97;35.92;101221.91;5008752;28;20049;-56
2022/06/29 11:18:21;;;;;;;16.42;9.43;;;;;;;27.98;36.87;101215.81;5009327;28;20030;-56
2022/06/29 11:20:48;;;;;;;13.73;8.80;;;;;;;28.00;37.24;101209.69;5008656;28;20081;-56
2022/06/29 11:23:19;;;;;;;13.70;9.00;;;;;;;28.06;36.88;101210.06;5009613;28;20104;-56
2022/06/29 11:25:48;;;;;;;12.95;9.10;;;;;;;28.14;36.49;101208.78;5009608;28;20030;-56